Aérodrome :
LOGIN :

S'inscrire | Disclaimer

   EN    FR    IT 

 










Légende :    VFR   VFR Marginal   IFR   IFR Intensif   IFR Très Intensif
Visi : 
Plafond : 
>= 8 km
>= 3000ft
5 à 8 km
1000 à 3000 ft
1500m à 5 km
500 à 1000 ft
800 à 1500m
200 à 500 ft
< 800m
< 200 ft
Symboles :   Orages  Brouillard  Fortes neiges  Fortes précipitations  Vent > 20 kt
SIGMETs :   Divers  Orages  Givrage  Turbulence  Onde Orograph.  Cendres Volcan.







- Altitude de l'aérodrome : 197 ft
- Code IATA : XOG
- Voir les cartes d'approche


LFMO - Orange

DERNIER METAR :
  • 202030Z AUTO VRB02KT 9999 BKN078 BKN100 BKN150 06/05 Q1011 NOSIG

METARs EXPIRÉS :
  • 202000Z AUTO VRB03KT 9999 FEW042 OVC100 07/05 Q1011
  • 201930Z AUTO 36003KT 330V050 9999 BKN052 BKN110 OVC150 07/05 Q1011 TEMPO 3000 BR BKN005
  • 201900Z AUTO 09003KT 9999 FEW045 OVC140 08/06 Q1011 TEMPO 3000 BR BKN005
  • 201830Z AUTO 11006KT 9999 FEW042 BKN049 OVC150 09/06 Q1011 TEMPO 3000 BR BKN005
  • 201800Z AUTO 13008KT 9999 BKN044 OVC050 09/06 Q1011 NOSIG

TAF TAF LFMO
Valide du 20 à 21h jusqu'au 21 à 21h UTC


202000Z 2021/2121 VRB02KT 9999 BKN040
PROB40
TEMPO 2022/2103 5000 BR
BECMG 2106/2108 35015G25KT CAVOK
BECMG 2109/2111 35020G35KT
BECMG 2114/2116 33015KT
Pas de NOTAMs connus pour ce terrain.
10 SIGMETs publiés pour la FIR Marseille (LFMM) :
 
Turbulence forte
LFMM SIGMET 22 VALID 202300/210300 LFPW
LFMM MARSEILLE FIR/UIR SEV TURB FCST WI N4630 E00545 - N4630 E00700 - N4400 E00700 - N4345 E00800 - N4300 E00615 - N4630 E00545 SFC/FL120 STNR NC=
Turbulence forte
LFMM SIGMET 21 VALID 202300/210300 LFPW
LFMM MARSEILLE FIR/UIR SEV TURB FCST WI N4200 E00430 - N4200 E00415 - N4215 E00230 - N4300 E00245 - N4345 E00800 - N4315 E00945 - N4145 E00945 - N4115 E00930 - N4115 E00815 - N4200 E00430 SFC/FL070 STNR INTSF=
Turbulence forte
LFMM SIGMET 20 VALID 202300/210300 LFPW
LFMM MARSEILLE FIR/UIR SEV TURB FCST NW OF LINE N4215 E00300 - N4630 E00445 SFC/FL100 STNR NC=
Onde orographique forte
LFMM SIGMET 19 VALID 202300/210300 LFPW
LFMM MARSEILLE FIR/UIR SEV MTW FCST E OF E00845 SFC/FL200 STNR NC=
Onde orographique forte
LFMM SIGMET 18 VALID 202300/210300 LFPW
LFMM MARSEILLE FIR/UIR SEV MTW FCST WI N4215 E00345 - N4215 E00230 - N4245 E00230 - N4230 E00345 - N4215 E00345 SFC/FL350 STNR NC=
Turbulence forte
LFMM SIGMET 16 VALID 202000/202300 LFPW
LFMM MARSEILLE FIR/UIR SEV TURB FCST WI N4545 E00700 - N4400 E00700 - N4345 E00800 - N4300 E00615 - N4545 E00600 - N4545 E00700 SFC/FL120 STNR NC=
Turbulence forte
LFMM SIGMET 15 VALID 201930/202300 LFPW
LFMM MARSEILLE FIR/UIR SEV TURB FCST WI N4200 E00430 - N4200 E00415 - N4215 E00230 - N4300 E00245 - N4345 E00800 - N4315 E00945 - N4145 E00945 - N4115 E00930 - N4115 E00815 - N4200 E00430 SFC/FL070 STNR INTSF=
Turbulence forte
LFMM SIGMET 14 VALID 202000/202300 LFPW
LFMM MARSEILLE FIR/UIR SEV TURB FCST NW OF LINE N4215 E00300 - N4630 E00445 SFC/FL100 STNR INTSF=
Onde orographique forte
LFMM SIGMET 13 VALID 202000/202300 LFPW
LFMM MARSEILLE FIR/UIR SEV MTW FCST WI N4215 E00345 - N4215 E00230 - N4245 E00230 - N4230 E00345 - N4215 E00345 SFC/FL350 STNR NC=
Onde orographique forte
LFMM SIGMET 12 VALID 202000/202300 LFPW
LFMM MARSEILLE FIR/UIR SEV MTW FCST E OF E00845 SFC/FL200 STNR NC=



MET'MAP, la Météo Aéronautique d'un coup d'oeil ! - Copyright ORBIFLY Décembre 2007 - Disclaimer

ORBIFLY MET'MAP TEAM :

Programmation & Développement : Alexandra Zaïnal
Conception & Développement : Baudouin d'Aumeries
Co-Programmation & Développement : Marc-Olivier Méhu
Soutien technique & logistique : Manuel Goepfert

Contact : metmap@orbifly.com




SOURCES & CREDITS :

   NOAA